createdAt,value
2023-05-06T00:03:54.024Z,3.75
2023-05-06T00:08:57.496Z,5.80
2023-05-06T00:14:00.551Z,5.30
2023-05-06T00:19:04.234Z,7.03
2023-05-06T00:24:07.772Z,29.83
2023-05-06T00:29:10.514Z,6.95
2023-05-06T00:34:13.297Z,6.43
2023-05-06T00:39:16.459Z,3.38
2023-05-06T00:44:19.130Z,6.63
2023-05-06T00:49:22.387Z,6.43
2023-05-06T00:54:29.854Z,4.68
2023-05-06T00:59:32.782Z,4.22
2023-05-06T01:04:36.084Z,5.93
2023-05-06T01:09:54.301Z,6.18
2023-05-06T01:15:31.682Z,4.97
2023-05-06T01:20:35.010Z,4.93
2023-05-06T01:25:37.961Z,6.38
2023-05-06T01:31:01.378Z,4.93
2023-05-06T01:36:22.596Z,4.07
2023-05-06T01:41:27.204Z,5.85
2023-05-06T01:46:30.616Z,10.37
2023-05-06T01:51:34.345Z,3.97
2023-05-06T01:56:37.597Z,5.13
2023-05-06T02:01:40.382Z,7.93
2023-05-06T02:06:43.452Z,5.50
2023-05-06T02:11:48.823Z,2.95
2023-05-06T02:16:51.679Z,2.72
2023-05-06T02:21:56.432Z,8.35
2023-05-06T02:26:59.476Z,7.45
2023-05-06T02:32:02.214Z,1.98
2023-05-06T02:37:05.431Z,3.63
2023-05-06T02:42:08.549Z,2.50
2023-05-06T02:47:11.165Z,2.28
2023-05-06T02:52:13.911Z,5.32
2023-05-06T02:57:16.918Z,3.45
2023-05-06T03:02:19.933Z,2.35
2023-05-06T03:07:22.903Z,5.60
2023-05-06T03:12:26.853Z,1.92
2023-05-06T03:17:29.365Z,3.88
2023-05-06T03:22:32.482Z,32.05
2023-05-06T03:27:35.042Z,187.23
2023-05-06T03:32:46.265Z,259.83
2023-05-06T03:37:54.037Z,21.73
2023-05-06T03:48:01.471Z,14.20
2023-05-06T03:53:07.169Z,6.28
2023-05-06T03:58:12.367Z,16.40
2023-05-06T04:03:17.465Z,9.30
2023-05-06T04:08:23.757Z,5.57
2023-05-06T04:13:27.178Z,4.57
2023-05-06T04:18:32.922Z,7.63
2023-05-06T04:23:39.842Z,1.65
2023-05-06T04:28:44.212Z,1.08
2023-05-06T04:33:48.916Z,5.07
2023-05-06T04:38:56.089Z,3.10
2023-05-06T04:43:59.509Z,2.38
2023-05-06T04:49:02.440Z,2.50
2023-05-06T04:54:05.971Z,2.05
2023-05-06T04:59:10.291Z,3.70
2023-05-06T05:04:15.357Z,1.13
2023-05-06T05:09:19.316Z,2.83
2023-05-06T05:14:25.255Z,2.58
2023-05-06T05:19:28.799Z,3.15
2023-05-06T05:24:32.080Z,1.83
2023-05-06T05:29:34.670Z,1.38
2023-05-06T05:34:40.427Z,1.48
2023-05-06T05:39:43.999Z,4.45
2023-05-06T05:44:48.425Z,0.98
2023-05-06T05:49:52.301Z,1.90
2023-05-06T05:54:56.329Z,1.80
2023-05-06T06:00:00.363Z,1.63
2023-05-06T06:05:03.285Z,1.15
2023-05-06T06:10:07.323Z,2.25
2023-05-06T06:15:11.456Z,3.53
2023-05-06T06:20:17.227Z,2.20
2023-05-06T06:25:21.993Z,2.13
2023-05-06T06:30:26.118Z,1.20
2023-05-06T06:35:30.908Z,1.57
2023-05-06T06:40:33.475Z,3.33
2023-05-06T06:45:36.023Z,1.48
2023-05-06T06:50:38.538Z,1.58
2023-05-06T06:55:44.926Z,0.73
2023-05-06T07:00:47.533Z,1.15
2023-05-06T07:05:50.415Z,2.28
2023-05-06T07:10:52.953Z,0.90
2023-05-06T07:15:55.472Z,0.50
2023-05-06T07:20:57.952Z,0.40
2023-05-06T07:26:00.636Z,2.17
2023-05-06T07:31:03.741Z,2.25
2023-05-06T07:36:06.655Z,0.80
2023-05-06T07:41:09.136Z,0.65
2023-05-06T07:46:11.962Z,2.75
2023-05-06T07:51:14.422Z,1.02
2023-05-06T07:56:17.782Z,1.02
2023-05-06T08:01:20.448Z,1.00
2023-05-06T08:06:23.152Z,1.50
2023-05-06T08:11:25.949Z,0.63
2023-05-06T08:16:28.654Z,0.40
2023-05-06T08:21:31.241Z,0.40
2023-05-06T08:26:33.833Z,0.68
2023-05-06T08:31:36.520Z,0.73
2023-05-06T08:36:39.174Z,0.75
2023-05-06T08:41:47.198Z,1.70
2023-05-06T08:46:49.945Z,1.10
2023-05-06T08:51:53.024Z,0.85
2023-05-06T08:56:58.868Z,0.68
2023-05-06T09:02:03.159Z,2.65
2023-05-06T09:07:05.688Z,1.80
2023-05-06T09:12:13.607Z,3.58
2023-05-06T09:17:24.521Z,2.53
2023-05-06T09:22:29.557Z,1.60
2023-05-06T09:27:36.840Z,1.00
2023-05-06T09:32:40.642Z,0.70
2023-05-06T09:37:43.320Z,0.55
2023-05-06T09:42:46.998Z,0.82
2023-05-06T09:47:50.277Z,0.52
2023-05-06T09:52:52.879Z,0.82
2023-05-06T09:57:56.356Z,0.70
2023-05-06T10:03:00.830Z,0.60
2023-05-06T10:08:07.287Z,0.75
2023-05-06T10:13:12.173Z,0.95
2023-05-06T10:18:20.413Z,0.32
2023-05-06T10:23:29.852Z,0.55
2023-05-06T10:28:34.358Z,0.40
2023-05-06T10:33:39.780Z,1.25
2023-05-06T10:38:49.356Z,0.50
2023-05-06T10:43:56.934Z,0.95
2023-05-06T10:49:29.930Z,0.82
2023-05-06T10:54:54.285Z,3.00
2023-05-06T11:00:01.144Z,0.45
2023-05-06T11:05:21.683Z,1.05
2023-05-06T11:17:15.230Z,0.40
2023-05-06T11:22:46.959Z,0.40
2023-05-06T11:28:00.489Z,0.55
2023-05-06T11:33:23.155Z,0.85
2023-05-06T11:38:58.972Z,2.05
2023-05-06T11:44:11.630Z,0.63
2023-05-06T11:49:15.968Z,0.63
2023-05-06T11:54:23.118Z,0.32
2023-05-06T11:59:35.000Z,4.70
2023-05-06T12:04:50.370Z,1.00
2023-05-06T12:10:00.429Z,0.73
2023-05-06T12:15:08.462Z,0.60
2023-05-06T12:20:19.088Z,5.00
2023-05-06T12:25:46.793Z,0.73
2023-05-06T12:30:54.146Z,0.52
2023-05-06T12:36:37.570Z,1.33
2023-05-06T12:42:10.881Z,0.50
2023-05-06T12:47:26.269Z,0.40
2023-05-06T12:52:51.505Z,0.50
2023-05-06T12:58:38.145Z,0.60
2023-05-06T13:04:12.165Z,2.55
2023-05-06T13:10:25.274Z,0.60
2023-05-06T13:29:49.267Z,0.40
2023-05-06T13:35:09.506Z,3.38
2023-05-06T13:40:38.857Z,1.00
2023-05-06T13:45:46.313Z,0.75
2023-05-06T13:50:50.586Z,1.43
2023-05-06T13:55:53.999Z,0.65
2023-05-06T14:01:00.788Z,3.92
2023-05-06T14:06:05.318Z,0.60
2023-05-06T14:11:12.199Z,1.83
2023-05-06T14:16:17.205Z,1.40
2023-05-06T14:21:21.168Z,1.52
2023-05-06T14:26:24.131Z,0.73
2023-05-06T14:31:27.898Z,0.88
2023-05-06T14:36:31.538Z,1.42
2023-05-06T14:41:34.714Z,2.85
2023-05-06T14:46:38.360Z,0.70
2023-05-06T14:51:44.402Z,2.78
2023-05-06T14:56:49.924Z,2.35
2023-05-06T15:01:53.067Z,3.67
2023-05-06T15:06:58.481Z,3.60
2023-05-06T15:12:02.814Z,3.72
2023-05-06T15:17:07.207Z,1.53
2023-05-06T15:22:11.680Z,2.60
2023-05-06T15:27:15.862Z,2.13
2023-05-06T15:32:19.575Z,3.25
2023-05-06T15:50:58.368Z,2.78
2023-05-06T15:57:32.273Z,1.67
2023-05-06T16:10:55.084Z,1.33
2023-05-06T16:17:56.085Z,0.75
2023-05-06T16:36:05.753Z,2.63
2023-05-06T16:41:08.320Z,5.55
2023-05-06T16:46:10.956Z,3.13
2023-05-06T16:51:15.737Z,3.50
2023-05-06T16:56:18.163Z,2.90
2023-05-06T17:01:21.427Z,2.83
2023-05-06T17:06:29.772Z,2.22
2023-05-06T17:11:32.428Z,3.72
2023-05-06T17:16:35.071Z,1.40
2023-05-06T17:21:37.770Z,4.38
2023-05-06T17:26:40.942Z,4.00
2023-05-06T17:31:43.502Z,7.35
2023-05-06T17:36:45.972Z,13.23
2023-05-06T17:41:49.034Z,12.70
2023-05-06T17:46:51.779Z,3.97
2023-05-06T17:51:56.033Z,6.68
2023-05-06T17:57:00.781Z,4.73
2023-05-06T18:02:04.177Z,4.55
2023-05-06T18:07:06.749Z,7.20
2023-05-06T18:12:12.165Z,3.50
2023-05-06T18:17:14.702Z,3.55
2023-05-06T18:22:17.377Z,4.32
2023-05-06T18:27:19.912Z,3.00
2023-05-06T18:32:22.543Z,4.72
2023-05-06T18:37:25.374Z,4.90
2023-05-06T18:42:27.914Z,4.18
2023-05-06T18:47:32.263Z,3.33
2023-05-06T18:52:37.565Z,4.20
2023-05-06T18:57:40.147Z,5.20
2023-05-06T19:02:42.978Z,7.30
2023-05-06T19:07:45.624Z,17.50
2023-05-06T19:12:48.306Z,5.40
2023-05-06T19:17:50.979Z,7.85
2023-05-06T19:22:53.644Z,11.02
2023-05-06T19:27:56.400Z,14.52
2023-05-06T19:38:16.909Z,16.50
2023-05-06T19:43:22.141Z,24.70
2023-05-06T19:48:24.894Z,18.30
2023-05-06T19:53:27.550Z,20.80
2023-05-06T19:58:30.025Z,21.88
2023-05-06T20:03:33.571Z,30.02
2023-05-06T20:08:36.133Z,27.13
2023-05-06T20:13:38.617Z,26.27
2023-05-06T20:18:41.094Z,20.95
2023-05-06T20:23:43.637Z,28.58
2023-05-06T20:28:46.071Z,30.48
2023-05-06T20:33:48.583Z,44.47
2023-05-06T20:38:51.609Z,75.95
2023-05-06T20:43:54.165Z,55.42
2023-05-06T20:48:57.053Z,40.97
2023-05-06T20:54:00.967Z,35.55
2023-05-06T20:59:03.794Z,53.30
2023-05-06T21:04:06.492Z,39.90
2023-05-06T21:09:08.944Z,43.88
2023-05-06T21:14:11.909Z,54.83
2023-05-06T21:19:14.870Z,58.70
2023-05-06T21:24:17.441Z,57.15
2023-05-06T21:29:21.295Z,54.05
2023-05-06T21:34:23.870Z,62.40
2023-05-06T21:39:26.895Z,61.38
2023-05-06T21:44:29.523Z,76.25
2023-05-06T21:49:31.948Z,70.10
2023-05-06T21:54:34.500Z,68.03
2023-05-06T21:59:37.039Z,88.78
2023-05-06T22:04:39.632Z,78.78
2023-05-06T22:09:42.293Z,77.20
2023-05-06T22:14:44.746Z,64.07
2023-05-06T22:19:47.175Z,64.72
2023-05-06T22:24:50.011Z,61.53
2023-05-06T22:29:52.523Z,56.78
2023-05-06T22:34:55.004Z,64.18
2023-05-06T22:39:58.071Z,48.65
2023-05-06T22:45:00.874Z,54.60
2023-05-06T22:50:03.527Z,43.75
2023-05-06T22:55:09.884Z,83.32
2023-05-06T23:00:13.741Z,99.38
2023-05-06T23:05:16.378Z,85.82
2023-05-06T23:10:19.769Z,58.15
2023-05-06T23:15:23.100Z,44.63
2023-05-06T23:20:25.747Z,56.53
2023-05-06T23:25:28.482Z,50.17
2023-05-06T23:30:31.090Z,101.93
2023-05-06T23:35:33.685Z,95.65
2023-05-06T23:40:36.224Z,74.50
2023-05-06T23:45:38.748Z,105.78
2023-05-06T23:50:41.215Z,86.78
2023-05-06T23:55:44.289Z,75.88
